createdAt,value
2023-07-05T00:01:35.122Z,35.83
2023-07-05T00:04:09.547Z,36.11
2023-07-05T00:06:43.977Z,36.42
2023-07-05T00:09:17.262Z,36.09
2023-07-05T00:11:51.197Z,36.08
2023-07-05T00:14:29.764Z,36.12
2023-07-05T00:24:06.983Z,36.06
2023-07-05T00:26:40.186Z,36.29
2023-07-05T00:29:14.026Z,36.13
2023-07-05T00:31:49.373Z,36.20
2023-07-05T00:34:23.024Z,36.68
2023-07-05T00:36:56.389Z,36.64
2023-07-05T00:39:29.997Z,36.46
2023-07-05T00:50:09.971Z,37.09
2023-07-05T00:52:51.005Z,37.02
2023-07-05T00:55:26.624Z,36.90
2023-07-05T00:58:02.014Z,36.84
2023-07-05T01:00:35.330Z,37.02
2023-07-05T01:03:17.985Z,36.90
2023-07-05T01:17:01.242Z,37.69
2023-07-05T01:20:03.690Z,37.76
2023-07-05T01:26:57.627Z,37.64
2023-07-05T01:30:20.982Z,37.99
2023-07-05T01:33:03.242Z,38.14
2023-07-05T01:46:19.105Z,38.40
2023-07-05T01:49:30.999Z,38.09
2023-07-05T01:52:15.162Z,38.29
2023-07-05T01:55:10.025Z,38.50
2023-07-05T01:57:52.403Z,38.57
2023-07-05T02:10:49.962Z,38.66
2023-07-05T02:13:30.029Z,38.95
2023-07-05T02:16:03.763Z,38.61
2023-07-05T02:18:38.064Z,38.67
2023-07-05T02:21:12.144Z,39.30
2023-07-05T02:23:45.985Z,38.82
2023-07-05T02:37:06.990Z,39.39
2023-07-05T02:39:40.454Z,39.18
2023-07-05T02:42:15.079Z,39.00
2023-07-05T02:44:48.657Z,39.06
2023-07-05T02:47:23.060Z,39.26
2023-07-05T02:49:56.898Z,39.35
2023-07-05T02:52:32.032Z,38.79
2023-07-05T03:05:42.042Z,39.18
2023-07-05T03:08:17.202Z,39.03
2023-07-05T03:10:51.032Z,39.14
2023-07-05T03:13:34.626Z,39.12
2023-07-05T03:16:15.045Z,38.92
2023-07-05T03:18:48.331Z,39.04
2023-07-05T03:31:39.116Z,39.12
2023-07-05T03:34:19.005Z,39.25
2023-07-05T03:36:52.308Z,38.89
2023-07-05T03:39:26.035Z,38.78
2023-07-05T03:41:59.356Z,38.80
2023-07-05T03:44:33.010Z,38.94
2023-07-05T03:57:45.027Z,38.87
2023-07-05T04:00:19.000Z,39.04
2023-07-05T04:02:52.070Z,39.43
2023-07-05T04:05:25.630Z,39.33
2023-07-05T04:07:58.988Z,39.36
2023-07-05T04:10:32.273Z,39.33
2023-07-05T04:13:08.018Z,39.00
2023-07-05T04:26:21.028Z,39.52
2023-07-05T04:28:57.033Z,39.31
2023-07-05T04:31:35.056Z,39.27
2023-07-05T04:34:08.398Z,39.69
2023-07-05T04:36:42.007Z,39.32
2023-07-05T04:39:15.253Z,39.70
2023-07-05T04:52:05.981Z,39.69
2023-07-05T04:54:46.025Z,39.50
2023-07-05T04:57:31.516Z,39.58
2023-07-05T05:00:15.009Z,39.46
2023-07-05T05:02:48.344Z,39.65
2023-07-05T05:19:04.019Z,39.42
2023-07-05T05:21:37.253Z,39.54
2023-07-05T05:24:12.038Z,39.78
2023-07-05T05:26:47.175Z,39.86
2023-07-05T05:29:22.059Z,39.69
2023-07-05T05:31:55.285Z,39.70
2023-07-05T05:34:33.029Z,39.71
2023-07-05T05:44:19.986Z,39.52
2023-07-05T05:47:00.139Z,39.54
2023-07-05T05:49:35.218Z,39.40
2023-07-05T05:52:09.004Z,39.80
2023-07-05T05:54:42.241Z,39.70
2023-07-05T05:57:16.037Z,39.57
2023-07-05T05:59:49.399Z,39.69
2023-07-05T06:12:40.005Z,40.00
2023-07-05T06:15:21.106Z,39.56
2023-07-05T06:17:54.696Z,39.33
2023-07-05T06:20:28.074Z,39.30
2023-07-05T06:23:01.534Z,39.68
2023-07-05T06:39:17.052Z,38.66
2023-07-05T06:41:50.279Z,38.96
2023-07-05T06:44:24.005Z,38.65
2023-07-05T06:46:57.264Z,38.71
2023-07-05T06:49:31.046Z,38.47
2023-07-05T06:52:07.774Z,38.02
2023-07-05T06:54:50.032Z,37.72
2023-07-05T07:04:42.132Z,37.26
2023-07-05T07:07:22.053Z,36.84
2023-07-05T07:09:57.256Z,36.72
2023-07-05T07:12:31.029Z,36.18
2023-07-05T07:15:05.960Z,35.96
2023-07-05T07:17:39.104Z,35.75
2023-07-05T07:33:53.945Z,35.47
2023-07-05T07:36:23.970Z,35.49
2023-07-05T07:39:06.065Z,35.57
2023-07-05T07:41:39.691Z,35.59
2023-07-05T07:44:16.030Z,35.28
2023-07-05T07:58:06.039Z,34.97
2023-07-05T08:00:39.305Z,34.59
2023-07-05T08:03:13.353Z,34.49
2023-07-05T08:05:50.930Z,34.92
2023-07-05T08:08:31.044Z,34.95
2023-07-05T08:11:05.759Z,34.91
2023-07-05T08:13:42.068Z,34.70
2023-07-05T08:26:52.049Z,35.61
2023-07-05T08:29:27.247Z,35.65
2023-07-05T08:32:01.094Z,35.71
2023-07-05T08:34:34.280Z,34.87
2023-07-05T08:37:08.045Z,35.09
2023-07-05T08:39:41.340Z,35.30
2023-07-05T08:52:38.014Z,35.53
2023-07-05T08:55:23.074Z,35.22
2023-07-05T08:57:58.789Z,35.38
2023-07-05T09:00:39.034Z,35.63
2023-07-05T09:03:15.220Z,36.07
2023-07-05T09:19:48.032Z,36.77
2023-07-05T09:22:28.752Z,36.81
2023-07-05T09:25:10.064Z,36.96
2023-07-05T09:27:47.710Z,37.06
2023-07-05T09:30:31.071Z,36.84
2023-07-05T09:33:12.138Z,36.80
2023-07-05T09:46:15.022Z,36.45
2023-07-05T09:48:55.049Z,36.43
2023-07-05T09:51:28.449Z,36.51
2023-07-05T09:54:08.053Z,36.34
2023-07-05T09:57:00.762Z,35.87
2023-07-05T09:59:41.065Z,36.52
2023-07-05T10:13:07.425Z,36.32
2023-07-05T10:15:47.703Z,35.72
2023-07-05T10:18:34.057Z,35.64
2023-07-05T10:21:19.427Z,35.86
2023-07-05T10:24:00.078Z,35.26
2023-07-05T10:26:33.495Z,35.07
2023-07-05T10:29:16.051Z,34.95
2023-07-05T10:39:01.028Z,35.11
2023-07-05T10:41:44.060Z,35.16
2023-07-05T10:44:28.150Z,35.15
2023-07-05T10:47:11.298Z,35.06
2023-07-05T10:49:46.537Z,35.21
2023-07-05T10:52:24.064Z,35.17
2023-07-05T11:05:49.090Z,34.47
2023-07-05T11:08:28.874Z,34.22
2023-07-05T11:11:19.082Z,33.92
2023-07-05T11:13:55.128Z,33.64
2023-07-05T11:16:32.103Z,32.83
2023-07-05T11:19:12.669Z,33.48
2023-07-05T11:32:13.037Z,33.60
2023-07-05T11:34:59.072Z,33.78
2023-07-05T11:37:42.639Z,34.16
2023-07-05T11:41:03.059Z,33.42
2023-07-05T11:43:40.248Z,33.31
2023-07-05T11:46:46.096Z,33.62
2023-07-05T11:49:45.417Z,32.76
2023-07-05T11:59:22.078Z,32.70
2023-07-05T12:01:57.929Z,32.74
2023-07-05T12:04:33.079Z,33.02
2023-07-05T12:07:12.105Z,33.38
2023-07-05T12:09:52.074Z,33.43
2023-07-05T12:12:25.336Z,33.60
2023-07-05T12:14:59.065Z,35.76
2023-07-05T12:25:38.089Z,38.86
2023-07-05T12:28:22.078Z,39.18
2023-07-05T12:30:57.752Z,38.98
2023-07-05T12:33:35.081Z,39.60
2023-07-05T12:36:10.886Z,40.13
2023-07-05T12:38:47.071Z,40.64
2023-07-05T12:52:27.090Z,39.76
2023-07-05T12:55:00.378Z,39.41
2023-07-05T12:57:39.116Z,38.55
2023-07-05T13:00:14.320Z,38.02
2023-07-05T13:02:51.135Z,37.70
2023-07-05T13:05:24.616Z,38.03
2023-07-05T13:08:01.090Z,37.86
2023-07-05T13:21:21.063Z,38.02
2023-07-05T13:23:56.237Z,38.03
2023-07-05T13:26:35.089Z,38.48
2023-07-05T13:29:23.791Z,38.56
2023-07-05T13:32:05.065Z,38.99
2023-07-05T13:34:38.446Z,38.86
2023-07-05T13:47:29.085Z,38.34
2023-07-05T13:50:09.171Z,38.72
2023-07-05T13:52:46.223Z,38.32
2023-07-05T13:55:35.444Z,38.77
2023-07-05T13:58:13.622Z,38.27
2023-07-05T14:14:36.103Z,39.90
2023-07-05T14:17:15.796Z,40.07
2023-07-05T14:19:57.092Z,40.18
2023-07-05T14:22:30.329Z,40.28
2023-07-05T14:25:04.087Z,40.27
2023-07-05T14:27:37.418Z,39.68
2023-07-05T14:40:06.187Z,39.65
2023-07-05T14:42:47.085Z,39.94
2023-07-05T14:45:25.980Z,40.01
2023-07-05T14:48:09.132Z,40.45
2023-07-05T14:50:48.747Z,40.12
2023-07-05T14:53:34.136Z,40.52
2023-07-05T15:06:47.117Z,39.91
2023-07-05T15:09:20.381Z,40.12
2023-07-05T15:11:54.102Z,40.55
2023-07-05T15:14:27.321Z,40.75
2023-07-05T15:17:01.111Z,40.76
2023-07-05T15:19:34.462Z,40.00
2023-07-05T15:32:56.113Z,37.94
2023-07-05T15:35:37.710Z,37.30
2023-07-05T15:38:11.358Z,36.57
2023-07-05T15:40:45.094Z,36.67
2023-07-05T15:43:18.425Z,35.43
2023-07-05T15:45:55.398Z,35.39
2023-07-05T15:48:31.328Z,35.03
2023-07-05T16:01:21.173Z,31.24
2023-07-05T16:04:03.106Z,31.42
2023-07-05T16:06:36.313Z,31.91
2023-07-05T16:09:10.234Z,31.56
2023-07-05T16:11:43.470Z,31.69
2023-07-05T16:14:17.099Z,31.87
2023-07-05T16:27:29.130Z,32.88
2023-07-05T16:30:03.266Z,33.40
2023-07-05T16:32:37.110Z,33.81
2023-07-05T16:35:10.557Z,34.00
2023-07-05T16:37:44.117Z,34.45
2023-07-05T16:54:32.088Z,33.78
2023-07-05T16:57:13.139Z,34.00
2023-07-05T16:59:46.568Z,33.90
2023-07-05T17:02:27.133Z,33.62
2023-07-05T17:05:00.312Z,33.78
2023-07-05T17:07:34.109Z,33.50
2023-07-05T17:10:10.424Z,33.52
2023-07-05T17:19:54.122Z,32.64
2023-07-05T17:22:27.361Z,31.71
2023-07-05T17:25:01.130Z,31.32
2023-07-05T17:27:36.288Z,31.09
2023-07-05T17:30:10.121Z,30.69
2023-07-05T17:32:43.453Z,29.99
2023-07-05T17:48:14.147Z,27.01
2023-07-05T17:50:47.382Z,27.08
2023-07-05T17:53:21.936Z,26.99
2023-07-05T17:55:55.464Z,26.97
2023-07-05T17:58:29.140Z,27.46
2023-07-05T18:15:06.106Z,28.76
2023-07-05T18:17:47.196Z,29.05
2023-07-05T18:20:20.373Z,29.35
2023-07-05T18:22:54.162Z,29.72
2023-07-05T18:25:27.419Z,29.73
2023-07-05T18:28:01.134Z,29.61
2023-07-05T18:41:18.153Z,30.15
2023-07-05T18:43:56.650Z,30.53
2023-07-05T18:46:37.190Z,30.65
2023-07-05T18:49:10.372Z,30.74
2023-07-05T18:51:44.118Z,30.57
2023-07-05T18:54:17.456Z,31.12
2023-07-05T19:07:08.118Z,31.93
2023-07-05T19:09:48.150Z,31.62
2023-07-05T19:12:21.434Z,31.55
2023-07-05T19:14:55.134Z,31.35
2023-07-05T19:17:28.412Z,31.32
2023-07-05T19:20:02.386Z,31.48
2023-07-05T19:33:41.161Z,32.43
2023-07-05T19:36:15.006Z,32.50
2023-07-05T19:38:48.138Z,32.50
2023-07-05T19:41:21.623Z,33.10
2023-07-05T19:43:56.217Z,32.72
2023-07-05T19:46:29.475Z,32.82
2023-07-05T19:49:08.138Z,32.80
2023-07-05T20:02:18.143Z,33.00
2023-07-05T20:04:53.506Z,33.11
2023-07-05T20:07:27.148Z,32.95
2023-07-05T20:10:00.423Z,33.04
2023-07-05T20:12:34.140Z,33.18
2023-07-05T20:15:08.865Z,33.71
2023-07-05T20:27:59.116Z,33.73
2023-07-05T20:30:39.131Z,33.92
2023-07-05T20:33:12.410Z,33.86
2023-07-05T20:35:46.149Z,34.13
2023-07-05T20:38:19.394Z,34.16
2023-07-05T20:54:35.190Z,34.19
2023-07-05T20:57:08.823Z,33.99
2023-07-05T20:59:42.160Z,33.91
2023-07-05T21:02:15.632Z,34.19
2023-07-05T21:04:49.305Z,34.13
2023-07-05T21:07:26.281Z,33.80
2023-07-05T21:10:01.155Z,34.18
2023-07-05T21:20:31.114Z,34.19
2023-07-05T21:23:11.162Z,34.27
2023-07-05T21:25:50.182Z,34.31
2023-07-05T21:28:31.149Z,34.09
2023-07-05T21:31:05.157Z,34.26
2023-07-05T21:33:39.143Z,33.84
2023-07-05T21:47:23.150Z,33.92
2023-07-05T21:49:56.353Z,33.71
2023-07-05T21:52:30.178Z,33.46
2023-07-05T21:55:04.263Z,33.63
2023-07-05T21:57:38.178Z,33.62
2023-07-05T22:00:13.606Z,33.65
2023-07-05T22:02:49.225Z,33.20
2023-07-05T22:16:04.189Z,33.46
2023-07-05T22:18:39.358Z,33.96
2023-07-05T22:21:13.144Z,33.62
2023-07-05T22:23:46.383Z,33.77
2023-07-05T22:26:20.145Z,33.80
2023-07-05T22:28:53.512Z,33.62
2023-07-05T22:41:44.145Z,33.41
2023-07-05T22:44:24.184Z,33.91
2023-07-05T22:46:57.540Z,33.90
2023-07-05T22:49:31.164Z,33.94
2023-07-05T22:52:06.335Z,33.87
2023-07-05T22:54:40.162Z,33.91
2023-07-05T23:07:52.181Z,34.53
2023-07-05T23:10:25.471Z,34.14
2023-07-05T23:13:05.172Z,34.21
2023-07-05T23:15:38.421Z,34.29
2023-07-05T23:18:12.274Z,34.17
2023-07-05T23:20:47.753Z,34.42
2023-07-05T23:23:23.159Z,34.32
2023-07-05T23:36:34.383Z,34.55
2023-07-05T23:39:11.136Z,34.49
2023-07-05T23:41:51.185Z,34.24
2023-07-05T23:44:24.747Z,34.52
2023-07-05T23:46:58.174Z,34.82
2023-07-05T23:49:31.397Z,34.53
